Crestview Hills, Kentucky
Current Conditions -  °F | °C
As of 6:36 PM on Thursday 18 Dec 2014 (Local Time) from KI69 Reporting Station
Overcast Overcast  
Wind Chill: 32°   Ceiling: 7000
Heat Index: 32°   Visibility: 10mi
Dew Point: 21°   Wind: 0mph
Humidity: 64%   Direction: NA
Pressure: 30.21"   Gusts: NA
Location:  39.0279°N, 84.5635°W
Report Text: KI69 182336Z AUTO 00000KT 10SM OVC070 00/M06 A3021 RMK AO1
Loading
Personal Weather Stations






























Interactive Weather Map New forecast layout! Learn more

10-Day Weather Forecast

Advertisements
Track Severe Weather on mobile